sensor_id;sensor_type;location;lat;lon;timestamp;pressure;altitude;pressure_sealevel;temperature;humidity
26657;BME280;14279;50.010;8.260;2023-05-23T00:00:53;100290.25;;;20.30;72.11
26657;BME280;14279;50.010;8.260;2023-05-23T00:03:18;100283.81;;;20.12;72.27
26657;BME280;14279;50.010;8.260;2023-05-23T00:05:46;100280.34;;;20.12;72.23
26657;BME280;14279;50.010;8.260;2023-05-23T00:08:12;100272.34;;;20.33;71.79
26657;BME280;14279;50.010;8.260;2023-05-23T00:10:37;100275.97;;;20.42;71.63
26657;BME280;14279;50.010;8.260;2023-05-23T00:13:02;100287.59;;;20.20;72.38
26657;BME280;14279;50.010;8.260;2023-05-23T00:15:29;100276.53;;;20.46;71.25
26657;BME280;14279;50.010;8.260;2023-05-23T00:17:55;100272.47;;;20.41;71.25
26657;BME280;14279;50.010;8.260;2023-05-23T00:20:20;100283.75;;;20.43;71.48
26657;BME280;14279;50.010;8.260;2023-05-23T00:22:45;100280.28;;;20.72;70.21
26657;BME280;14279;50.010;8.260;2023-05-23T00:25:12;100277.84;;;20.81;69.71
26657;BME280;14279;50.010;8.260;2023-05-23T00:27:37;100279.72;;;20.59;70.56
26657;BME280;14279;50.010;8.260;2023-05-23T00:30:03;100286.69;;;20.50;70.66
26657;BME280;14279;50.010;8.260;2023-05-23T00:32:28;100282.78;;;20.64;70.43
26657;BME280;14279;50.010;8.260;2023-05-23T00:34:53;100289.19;;;20.62;70.29
26657;BME280;14279;50.010;8.260;2023-05-23T00:37:20;100292.91;;;20.30;70.98
26657;BME280;14279;50.010;8.260;2023-05-23T00:39:46;100293.81;;;19.99;72.41
26657;BME280;14279;50.010;8.260;2023-05-23T00:42:12;100289.50;;;20.08;71.35
26657;BME280;14279;50.010;8.260;2023-05-23T00:44:37;100295.91;;;20.05;71.47
26657;BME280;14279;50.010;8.260;2023-05-23T00:47:04;100304.06;;;19.92;71.52
26657;BME280;14279;50.010;8.260;2023-05-23T00:49:31;100288.25;;;20.02;71.48
26657;BME280;14279;50.010;8.260;2023-05-23T00:51:57;100293.53;;;20.02;70.50
26657;BME280;14279;50.010;8.260;2023-05-23T00:54:27;100304.34;;;19.89;70.95
26657;BME280;14279;50.010;8.260;2023-05-23T00:56:53;100305.53;;;19.85;70.73
26657;BME280;14279;50.010;8.260;2023-05-23T00:59:20;100302.34;;;19.81;70.95
26657;BME280;14279;50.010;8.260;2023-05-23T01:01:47;100322.44;;;19.73;70.66
26657;BME280;14279;50.010;8.260;2023-05-23T01:04:14;100309.34;;;19.71;71.34
26657;BME280;14279;50.010;8.260;2023-05-23T01:06:40;100319.66;;;19.95;70.24
26657;BME280;14279;50.010;8.260;2023-05-23T01:09:07;100321.59;;;19.93;69.28
26657;BME280;14279;50.010;8.260;2023-05-23T01:11:48;100320.47;;;19.96;69.71
26657;BME280;14279;50.010;8.260;2023-05-23T01:14:19;100332.16;;;19.72;70.09
26657;BME280;14279;50.010;8.260;2023-05-23T01:16:57;100325.25;;;19.81;69.85
26657;BME280;14279;50.010;8.260;2023-05-23T01:19:33;100328.16;;;19.78;69.63
26657;BME280;14279;50.010;8.260;2023-05-23T01:22:11;100311.78;;;19.84;69.54
26657;BME280;14279;50.010;8.260;2023-05-23T01:25:04;100315.88;;;19.88;69.89
26657;BME280;14279;50.010;8.260;2023-05-23T01:27:43;100306.25;;;19.87;69.49
26657;BME280;14279;50.010;8.260;2023-05-23T01:30:10;100335.22;;;19.67;69.91
26657;BME280;14279;50.010;8.260;2023-05-23T01:32:38;100316.13;;;19.64;70.24
26657;BME280;14279;50.010;8.260;2023-05-23T01:35:04;100321.19;;;19.77;70.09
26657;BME280;14279;50.010;8.260;2023-05-23T01:37:30;100315.72;;;19.59;70.49
26657;BME280;14279;50.010;8.260;2023-05-23T01:39:55;100314.19;;;19.66;70.35
26657;BME280;14279;50.010;8.260;2023-05-23T01:42:20;100318.38;;;19.90;69.30
26657;BME280;14279;50.010;8.260;2023-05-23T01:44:46;100322.97;;;19.66;69.63
26657;BME280;14279;50.010;8.260;2023-05-23T01:47:12;100326.69;;;19.64;69.08
26657;BME280;14279;50.010;8.260;2023-05-23T01:49:39;100330.72;;;19.37;69.79
26657;BME280;14279;50.010;8.260;2023-05-23T01:52:06;100326.31;;;19.47;69.54
26657;BME280;14279;50.010;8.260;2023-05-23T01:54:33;100328.97;;;19.26;70.08
26657;BME280;14279;50.010;8.260;2023-05-23T01:57:00;100339.03;;;19.00;70.78
26657;BME280;14279;50.010;8.260;2023-05-23T01:59:26;100340.28;;;19.17;70.22
26657;BME280;14279;50.010;8.260;2023-05-23T02:01:51;100343.25;;;18.91;69.62
26657;BME280;14279;50.010;8.260;2023-05-23T02:04:17;100343.50;;;18.99;69.58
26657;BME280;14279;50.010;8.260;2023-05-23T02:06:42;100340.28;;;18.84;69.92
26657;BME280;14279;50.010;8.260;2023-05-23T02:09:07;100357.81;;;18.74;69.91
26657;BME280;14279;50.010;8.260;2023-05-23T02:11:34;100353.97;;;18.67;69.98
26657;BME280;14279;50.010;8.260;2023-05-23T02:13:59;100356.84;;;18.75;69.53
26657;BME280;14279;50.010;8.260;2023-05-23T02:16:24;100350.09;;;18.38;69.94
26657;BME280;14279;50.010;8.260;2023-05-23T02:18:50;100373.22;;;18.35;69.83
26657;BME280;14279;50.010;8.260;2023-05-23T02:21:16;100352.25;;;18.33;70.11
26657;BME280;14279;50.010;8.260;2023-05-23T02:23:42;100347.47;;;18.27;69.38
26657;BME280;14279;50.010;8.260;2023-05-23T02:26:07;100344.72;;;18.28;69.83
26657;BME280;14279;50.010;8.260;2023-05-23T02:28:32;100355.50;;;18.37;69.28
26657;BME280;14279;50.010;8.260;2023-05-23T02:30:57;100355.25;;;18.28;68.80
26657;BME280;14279;50.010;8.260;2023-05-23T02:33:23;100343.03;;;18.39;68.89
26657;BME280;14279;50.010;8.260;2023-05-23T02:35:48;100355.25;;;18.28;67.51
26657;BME280;14279;50.010;8.260;2023-05-23T02:38:15;100350.56;;;18.43;67.36
26657;BME280;14279;50.010;8.260;2023-05-23T02:40:40;100356.34;;;18.26;67.85
26657;BME280;14279;50.010;8.260;2023-05-23T02:43:05;100362.31;;;18.28;67.33
26657;BME280;14279;50.010;8.260;2023-05-23T02:45:31;100357.28;;;18.36;66.95
26657;BME280;14279;50.010;8.260;2023-05-23T02:47:56;100369.13;;;18.53;67.12
26657;BME280;14279;50.010;8.260;2023-05-23T02:50:21;100365.75;;;18.51;67.01
26657;BME280;14279;50.010;8.260;2023-05-23T02:52:46;100376.28;;;18.62;66.79
26657;BME280;14279;50.010;8.260;2023-05-23T02:55:12;100374.16;;;18.56;67.63
26657;BME280;14279;50.010;8.260;2023-05-23T02:57:37;100379.66;;;18.65;67.36
26657;BME280;14279;50.010;8.260;2023-05-23T03:00:02;100386.94;;;18.61;67.44
26657;BME280;14279;50.010;8.260;2023-05-23T03:02:28;100378.34;;;18.47;65.89
26657;BME280;14279;50.010;8.260;2023-05-23T03:04:54;100382.78;;;18.58;65.29
26657;BME280;14279;50.010;8.260;2023-05-23T03:07:20;100378.19;;;18.72;65.36
26657;BME280;14279;50.010;8.260;2023-05-23T03:09:45;100381.03;;;18.80;64.91
26657;BME280;14279;50.010;8.260;2023-05-23T03:12:10;100376.25;;;18.74;64.71
26657;BME280;14279;50.010;8.260;2023-05-23T03:14:36;100384.31;;;18.61;66.05
26657;BME280;14279;50.010;8.260;2023-05-23T03:17:01;100388.16;;;18.57;67.08
26657;BME280;14279;50.010;8.260;2023-05-23T03:19:28;100395.22;;;18.56;67.57
26657;BME280;14279;50.010;8.260;2023-05-23T03:21:53;100393.91;;;18.62;67.50
26657;BME280;14279;50.010;8.260;2023-05-23T03:24:18;100393.09;;;18.39;67.15
26657;BME280;14279;50.010;8.260;2023-05-23T03:26:43;100393.56;;;18.10;68.36
26657;BME280;14279;50.010;8.260;2023-05-23T03:29:09;100391.63;;;17.89;69.11
26657;BME280;14279;50.010;8.260;2023-05-23T03:31:35;100403.16;;;17.64;68.82
26657;BME280;14279;50.010;8.260;2023-05-23T03:34:00;100395.84;;;17.56;69.58
26657;BME280;14279;50.010;8.260;2023-05-23T03:36:25;100392.22;;;17.81;69.06
26657;BME280;14279;50.010;8.260;2023-05-23T03:38:52;100410.50;;;17.83;68.72
26657;BME280;14279;50.010;8.260;2023-05-23T03:41:17;100401.06;;;17.80;68.67
26657;BME280;14279;50.010;8.260;2023-05-23T03:43:43;100402.34;;;17.75;68.66
26657;BME280;14279;50.010;8.260;2023-05-23T03:46:08;100414.41;;;17.66;68.90
26657;BME280;14279;50.010;8.260;2023-05-23T03:48:33;100418.13;;;17.75;68.58
26657;BME280;14279;50.010;8.260;2023-05-23T03:50:58;100405.78;;;17.52;69.01
26657;BME280;14279;50.010;8.260;2023-05-23T03:53:24;100412.00;;;17.63;68.82
26657;BME280;14279;50.010;8.260;2023-05-23T03:55:49;100418.66;;;17.91;68.05
26657;BME280;14279;50.010;8.260;2023-05-23T03:58:14;100419.72;;;17.88;67.95
26657;BME280;14279;50.010;8.260;2023-05-23T04:00:39;100422.34;;;17.88;68.09
26657;BME280;14279;50.010;8.260;2023-05-23T04:03:05;100427.94;;;17.61;68.88
26657;BME280;14279;50.010;8.260;2023-05-23T04:05:30;100427.56;;;17.30;68.82
26657;BME280;14279;50.010;8.260;2023-05-23T04:07:55;100415.00;;;17.34;69.01
26657;BME280;14279;50.010;8.260;2023-05-23T04:10:21;100412.59;;;17.55;68.17
26657;BME280;14279;50.010;8.260;2023-05-23T04:12:46;100422.59;;;17.74;68.00
26657;BME280;14279;50.010;8.260;2023-05-23T04:15:12;100435.78;;;17.50;67.24
26657;BME280;14279;50.010;8.260;2023-05-23T04:17:37;100439.41;;;17.60;67.97
26657;BME280;14279;50.010;8.260;2023-05-23T04:20:07;100455.81;;;17.15;68.94
26657;BME280;14279;50.010;8.260;2023-05-23T04:22:33;100447.84;;;17.17;68.64
26657;BME280;14279;50.010;8.260;2023-05-23T04:24:58;100443.47;;;17.28;68.11
26657;BME280;14279;50.010;8.260;2023-05-23T04:27:24;100438.66;;;17.22;68.64
26657;BME280;14279;50.010;8.260;2023-05-23T04:29:50;100444.53;;;17.62;67.24
26657;BME280;14279;50.010;8.260;2023-05-23T04:32:16;100445.41;;;17.73;66.61
26657;BME280;14279;50.010;8.260;2023-05-23T04:34:43;100444.41;;;17.52;67.38
26657;BME280;14279;50.010;8.260;2023-05-23T04:37:09;100453.78;;;17.67;66.58
26657;BME280;14279;50.010;8.260;2023-05-23T04:39:35;100441.19;;;17.60;66.89
26657;BME280;14279;50.010;8.260;2023-05-23T04:42:01;100473.34;;;17.52;66.97
26657;BME280;14279;50.010;8.260;2023-05-23T04:44:26;100450.09;;;17.46;67.13
26657;BME280;14279;50.010;8.260;2023-05-23T04:46:54;100454.03;;;17.64;67.07
26657;BME280;14279;50.010;8.260;2023-05-23T04:49:20;100464.69;;;17.74;66.61
26657;BME280;14279;50.010;8.260;2023-05-23T04:51:46;100469.47;;;17.69;66.38
26657;BME280;14279;50.010;8.260;2023-05-23T04:54:12;100478.50;;;17.29;67.22
26657;BME280;14279;50.010;8.260;2023-05-23T04:56:37;100475.69;;;17.19;68.24
26657;BME280;14279;50.010;8.260;2023-05-23T04:59:03;100476.94;;;17.86;65.64
26657;BME280;14279;50.010;8.260;2023-05-23T05:01:28;100477.63;;;17.77;65.76
26657;BME280;14279;50.010;8.260;2023-05-23T05:03:53;100472.09;;;18.05;64.98
26657;BME280;14279;50.010;8.260;2023-05-23T05:06:18;100478.25;;;17.81;65.25
26657;BME280;14279;50.010;8.260;2023-05-23T05:08:45;100468.16;;;18.10;64.81
26657;BME280;14279;50.010;8.260;2023-05-23T05:11:10;100474.28;;;18.22;63.58
26657;BME280;14279;50.010;8.260;2023-05-23T05:13:35;100469.38;;;18.17;63.68
26657;BME280;14279;50.010;8.260;2023-05-23T05:16:01;100470.94;;;18.09;63.49
26657;BME280;14279;50.010;8.260;2023-05-23T05:18:27;100463.91;;;17.85;64.73
26657;BME280;14279;50.010;8.260;2023-05-23T05:20:52;100482.16;;;17.99;63.80
26657;BME280;14279;50.010;8.260;2023-05-23T05:23:18;100485.19;;;17.82;64.46
26657;BME280;14279;50.010;8.260;2023-05-23T05:25:43;100488.03;;;18.03;63.80
26657;BME280;14279;50.010;8.260;2023-05-23T05:28:08;100483.50;;;17.81;63.82
26657;BME280;14279;50.010;8.260;2023-05-23T05:30:34;100507.56;;;17.52;63.33
26657;BME280;14279;50.010;8.260;2023-05-23T05:33:03;100496.06;;;17.53;64.11
26657;BME280;14279;50.010;8.260;2023-05-23T05:35:33;100502.81;;;17.33;64.54
26657;BME280;14279;50.010;8.260;2023-05-23T05:37:59;100499.41;;;17.43;64.50
26657;BME280;14279;50.010;8.260;2023-05-23T05:40:25;100509.31;;;17.64;63.65
26657;BME280;14279;50.010;8.260;2023-05-23T05:42:50;100505.31;;;17.34;64.26
26657;BME280;14279;50.010;8.260;2023-05-23T05:45:15;100509.59;;;17.48;64.49
26657;BME280;14279;50.010;8.260;2023-05-23T05:47:41;100517.78;;;17.56;64.45
26657;BME280;14279;50.010;8.260;2023-05-23T05:50:07;100508.41;;;17.52;65.06
26657;BME280;14279;50.010;8.260;2023-05-23T05:52:33;100551.94;;;17.69;64.28
26657;BME280;14279;50.010;8.260;2023-05-23T05:55:03;100533.78;;;17.16;64.69
26657;BME280;14279;50.010;8.260;2023-05-23T05:57:29;100533.16;;;17.50;63.48
26657;BME280;14279;50.010;8.260;2023-05-23T05:59:54;100548.81;;;17.27;64.02
26657;BME280;14279;50.010;8.260;2023-05-23T06:02:19;100534.91;;;17.25;63.94
26657;BME280;14279;50.010;8.260;2023-05-23T06:04:44;100517.94;;;17.05;64.10
26657;BME280;14279;50.010;8.260;2023-05-23T06:07:11;100529.22;;;17.31;63.82
26657;BME280;14279;50.010;8.260;2023-05-23T06:09:36;100532.66;;;17.45;63.16
26657;BME280;14279;50.010;8.260;2023-05-23T06:12:01;100533.72;;;17.66;63.17
26657;BME280;14279;50.010;8.260;2023-05-23T06:14:27;100532.06;;;17.28;63.78
26657;BME280;14279;50.010;8.260;2023-05-23T06:16:52;100541.28;;;17.71;62.94
26657;BME280;14279;50.010;8.260;2023-05-23T06:19:17;100530.63;;;17.72;62.57
26657;BME280;14279;50.010;8.260;2023-05-23T06:21:42;100537.47;;;17.51;63.03
26657;BME280;14279;50.010;8.260;2023-05-23T06:24:07;100524.78;;;17.45;63.57
26657;BME280;14279;50.010;8.260;2023-05-23T06:26:33;100540.47;;;17.57;62.59
26657;BME280;14279;50.010;8.260;2023-05-23T06:28:58;100555.09;;;17.62;62.86
26657;BME280;14279;50.010;8.260;2023-05-23T06:31:23;100556.22;;;17.46;63.41
26657;BME280;14279;50.010;8.260;2023-05-23T06:33:48;100539.88;;;17.30;63.97
26657;BME280;14279;50.010;8.260;2023-05-23T06:36:14;100544.50;;;17.26;64.78
26657;BME280;14279;50.010;8.260;2023-05-23T06:38:39;100556.06;;;17.85;63.21
26657;BME280;14279;50.010;8.260;2023-05-23T06:41:04;100549.03;;;17.72;62.90
26657;BME280;14279;50.010;8.260;2023-05-23T06:43:31;100549.81;;;17.99;62.58
26657;BME280;14279;50.010;8.260;2023-05-23T06:45:56;100560.34;;;17.37;64.07
26657;BME280;14279;50.010;8.260;2023-05-23T06:48:21;100568.09;;;17.52;63.57
26657;BME280;14279;50.010;8.260;2023-05-23T06:50:46;100564.59;;;17.64;63.30
26657;BME280;14279;50.010;8.260;2023-05-23T06:53:12;100573.31;;;17.65;63.65
26657;BME280;14279;50.010;8.260;2023-05-23T06:55:38;100569.72;;;17.66;63.31
26657;BME280;14279;50.010;8.260;2023-05-23T06:58:03;100575.72;;;17.68;63.78
26657;BME280;14279;50.010;8.260;2023-05-23T07:00:31;100567.03;;;17.54;64.37
26657;BME280;14279;50.010;8.260;2023-05-23T07:02:56;100561.53;;;18.06;63.03
26657;BME280;14279;50.010;8.260;2023-05-23T07:05:27;100571.75;;;18.11;62.55
26657;BME280;14279;50.010;8.260;2023-05-23T07:07:52;100580.38;;;17.64;63.84
26657;BME280;14279;50.010;8.260;2023-05-23T07:10:18;100568.34;;;17.73;63.19
26657;BME280;14279;50.010;8.260;2023-05-23T07:12:44;100568.53;;;17.94;63.31
26657;BME280;14279;50.010;8.260;2023-05-23T07:15:10;100575.94;;;18.60;61.29
26657;BME280;14279;50.010;8.260;2023-05-23T07:17:36;100573.16;;;18.51;61.48
26657;BME280;14279;50.010;8.260;2023-05-23T07:20:01;100570.16;;;18.55;61.18
26657;BME280;14279;50.010;8.260;2023-05-23T07:22:27;100573.94;;;18.17;62.62
26657;BME280;14279;50.010;8.260;2023-05-23T07:24:52;100582.69;;;17.93;63.49
26657;BME280;14279;50.010;8.260;2023-05-23T07:27:17;100577.31;;;18.42;61.98
26657;BME280;14279;50.010;8.260;2023-05-23T07:29:42;100572.22;;;18.86;60.80
26657;BME280;14279;50.010;8.260;2023-05-23T07:32:08;100575.00;;;18.84;60.73
26657;BME280;14279;50.010;8.260;2023-05-23T07:34:33;100581.63;;;18.31;62.22
26657;BME280;14279;50.010;8.260;2023-05-23T07:36:58;100573.91;;;17.93;63.59
26657;BME280;14279;50.010;8.260;2023-05-23T07:39:23;100578.31;;;18.05;63.60
26657;BME280;14279;50.010;8.260;2023-05-23T07:41:49;100574.19;;;18.25;63.24
26657;BME280;14279;50.010;8.260;2023-05-23T07:44:17;100583.97;;;18.70;61.25
26657;BME280;14279;50.010;8.260;2023-05-23T07:46:42;100584.91;;;18.46;62.17
26657;BME280;14279;50.010;8.260;2023-05-23T07:49:08;100596.34;;;18.34;62.12
26657;BME280;14279;50.010;8.260;2023-05-23T07:51:33;100590.91;;;18.48;61.86
26657;BME280;14279;50.010;8.260;2023-05-23T07:53:58;100592.09;;;18.09;62.92
26657;BME280;14279;50.010;8.260;2023-05-23T07:56:23;100585.72;;;18.36;62.69
26657;BME280;14279;50.010;8.260;2023-05-23T07:58:49;100595.34;;;18.71;61.42
26657;BME280;14279;50.010;8.260;2023-05-23T08:01:14;100590.59;;;18.87;60.82
26657;BME280;14279;50.010;8.260;2023-05-23T08:03:40;100584.84;;;18.35;62.24
26657;BME280;14279;50.010;8.260;2023-05-23T08:06:05;100582.72;;;18.40;61.93
26657;BME280;14279;50.010;8.260;2023-05-23T08:08:31;100585.13;;;18.55;61.69
26657;BME280;14279;50.010;8.260;2023-05-23T08:10:57;100588.53;;;18.68;61.62
26657;BME280;14279;50.010;8.260;2023-05-23T08:13:22;100598.00;;;18.82;61.44
26657;BME280;14279;50.010;8.260;2023-05-23T08:15:47;100590.63;;;19.10;60.49
26657;BME280;14279;50.010;8.260;2023-05-23T08:18:12;100595.69;;;18.55;61.38
26657;BME280;14279;50.010;8.260;2023-05-23T08:20:37;100605.34;;;18.43;62.41
26657;BME280;14279;50.010;8.260;2023-05-23T08:23:03;100597.28;;;18.22;63.84
26657;BME280;14279;50.010;8.260;2023-05-23T08:25:28;100602.63;;;18.09;64.43
26657;BME280;14279;50.010;8.260;2023-05-23T08:27:57;100613.06;;;17.97;63.29
26657;BME280;14279;50.010;8.260;2023-05-23T08:30:24;100620.56;;;18.39;61.77
26657;BME280;14279;50.010;8.260;2023-05-23T08:32:53;100618.91;;;18.38;62.49
26657;BME280;14279;50.010;8.260;2023-05-23T08:35:19;100609.13;;;18.16;63.29
26657;BME280;14279;50.010;8.260;2023-05-23T08:37:45;100606.81;;;18.36;62.68
26657;BME280;14279;50.010;8.260;2023-05-23T08:40:17;100614.97;;;17.95;63.56
26657;BME280;14279;50.010;8.260;2023-05-23T08:42:44;100606.63;;;18.61;62.41
26657;BME280;14279;50.010;8.260;2023-05-23T08:45:09;100605.63;;;18.51;61.78
26657;BME280;14279;50.010;8.260;2023-05-23T08:47:36;100623.66;;;18.80;61.52
26657;BME280;14279;50.010;8.260;2023-05-23T08:50:05;100617.13;;;18.50;61.92
26657;BME280;14279;50.010;8.260;2023-05-23T08:52:32;100614.50;;;18.50;62.08
26657;BME280;14279;50.010;8.260;2023-05-23T08:54:59;100612.13;;;18.58;62.13
26657;BME280;14279;50.010;8.260;2023-05-23T08:57:24;100604.03;;;18.96;59.81
26657;BME280;14279;50.010;8.260;2023-05-23T08:59:50;100605.91;;;18.71;60.81
26657;BME280;14279;50.010;8.260;2023-05-23T09:02:16;100609.97;;;18.75;60.67
26657;BME280;14279;50.010;8.260;2023-05-23T09:04:42;100613.38;;;19.00;59.85
26657;BME280;14279;50.010;8.260;2023-05-23T09:07:08;100620.63;;;18.51;61.86
26657;BME280;14279;50.010;8.260;2023-05-23T09:09:34;100628.38;;;18.41;61.89
26657;BME280;14279;50.010;8.260;2023-05-23T09:11:59;100619.75;;;18.39;62.28
26657;BME280;14279;50.010;8.260;2023-05-23T09:14:25;100626.06;;;18.36;62.69
26657;BME280;14279;50.010;8.260;2023-05-23T09:16:50;100619.75;;;18.50;62.27
26657;BME280;14279;50.010;8.260;2023-05-23T09:19:17;100631.88;;;18.53;62.10
26657;BME280;14279;50.010;8.260;2023-05-23T09:21:43;100627.94;;;18.58;61.16
26657;BME280;14279;50.010;8.260;2023-05-23T09:24:10;100633.31;;;18.57;60.85
26657;BME280;14279;50.010;8.260;2023-05-23T09:26:35;100632.25;;;18.71;60.68
26657;BME280;14279;50.010;8.260;2023-05-23T09:29:04;100639.09;;;18.62;59.92
26657;BME280;14279;50.010;8.260;2023-05-23T09:31:30;100625.69;;;18.29;60.87
26657;BME280;14279;50.010;8.260;2023-05-23T09:33:57;100645.16;;;18.40;61.32
26657;BME280;14279;50.010;8.260;2023-05-23T09:36:22;100635.38;;;18.65;60.34
26657;BME280;14279;50.010;8.260;2023-05-23T09:38:47;100633.72;;;18.75;59.92
26657;BME280;14279;50.010;8.260;2023-05-23T09:41:13;100633.47;;;18.78;60.14
26657;BME280;14279;50.010;8.260;2023-05-23T09:43:39;100629.66;;;18.82;60.04
26657;BME280;14279;50.010;8.260;2023-05-23T09:46:11;100635.34;;;19.12;59.50
26657;BME280;14279;50.010;8.260;2023-05-23T09:48:36;100631.22;;;18.85;59.82
26657;BME280;14279;50.010;8.260;2023-05-23T09:51:07;100636.72;;;18.82;59.55
26657;BME280;14279;50.010;8.260;2023-05-23T09:53:33;100624.19;;;19.08;58.37
26657;BME280;14279;50.010;8.260;2023-05-23T09:55:59;100624.53;;;19.26;58.68
26657;BME280;14279;50.010;8.260;2023-05-23T09:58:26;100636.28;;;19.45;58.30
26657;BME280;14279;50.010;8.260;2023-05-23T10:00:52;100633.53;;;19.01;59.15
26657;BME280;14279;50.010;8.260;2023-05-23T10:03:28;100631.50;;;19.16;59.26
26657;BME280;14279;50.010;8.260;2023-05-23T10:05:56;100635.31;;;19.34;58.79
26657;BME280;14279;50.010;8.260;2023-05-23T10:08:35;100627.75;;;19.41;58.57
26657;BME280;14279;50.010;8.260;2023-05-23T10:13:40;100640.94;;;19.41;58.18
26657;BME280;14279;50.010;8.260;2023-05-23T10:16:20;100633.41;;;19.36;58.54
26657;BME280;14279;50.010;8.260;2023-05-23T10:18:53;100650.78;;;19.39;58.59
26657;BME280;14279;50.010;8.260;2023-05-23T10:21:28;100653.25;;;18.72;60.55
26657;BME280;14279;50.010;8.260;2023-05-23T10:23:58;100650.03;;;18.80;60.55
26657;BME280;14279;50.010;8.260;2023-05-23T10:26:23;100659.03;;;18.89;60.33
26657;BME280;14279;50.010;8.260;2023-05-23T10:28:49;100670.66;;;18.39;61.50
26657;BME280;14279;50.010;8.260;2023-05-23T10:31:15;100653.19;;;18.97;60.25
26657;BME280;14279;50.010;8.260;2023-05-23T10:33:45;100650.56;;;18.97;59.97
26657;BME280;14279;50.010;8.260;2023-05-23T10:36:26;100671.25;;;18.43;61.22
26657;BME280;14279;50.010;8.260;2023-05-23T10:38:59;100654.00;;;18.86;60.60
26657;BME280;14279;50.010;8.260;2023-05-23T10:41:37;100662.03;;;18.84;60.28
26657;BME280;14279;50.010;8.260;2023-05-23T10:46:59;100650.75;;;18.82;60.57
26657;BME280;14279;50.010;8.260;2023-05-23T10:49:42;100656.81;;;19.18;59.25
26657;BME280;14279;50.010;8.260;2023-05-23T10:52:12;100659.19;;;18.99;59.27
26657;BME280;14279;50.010;8.260;2023-05-23T10:54:49;100659.03;;;18.77;60.44
26657;BME280;14279;50.010;8.260;2023-05-23T10:57:16;100665.13;;;18.78;61.10
26657;BME280;14279;50.010;8.260;2023-05-23T10:59:44;100669.69;;;18.40;62.34
26657;BME280;14279;50.010;8.260;2023-05-23T11:02:15;100680.59;;;18.11;62.66
26657;BME280;14279;50.010;8.260;2023-05-23T11:04:42;100676.03;;;18.38;61.63
26657;BME280;14279;50.010;8.260;2023-05-23T11:07:30;100681.59;;;18.22;62.88
26657;BME280;14279;50.010;8.260;2023-05-23T11:10:22;100675.34;;;18.47;61.92
26657;BME280;14279;50.010;8.260;2023-05-23T11:12:47;100676.94;;;18.50;62.44
26657;BME280;14279;50.010;8.260;2023-05-23T11:17:52;100658.31;;;18.87;60.08
26657;BME280;14279;50.010;8.260;2023-05-23T11:20:25;100681.75;;;19.03;59.64
26657;BME280;14279;50.010;8.260;2023-05-23T11:22:53;100672.00;;;18.92;60.45
26657;BME280;14279;50.010;8.260;2023-05-23T11:25:19;100672.19;;;19.13;59.66
26657;BME280;14279;50.010;8.260;2023-05-23T11:27:45;100672.44;;;18.86;60.80
26657;BME280;14279;50.010;8.260;2023-05-23T11:30:13;100674.44;;;18.24;62.37
26657;BME280;14279;50.010;8.260;2023-05-23T11:32:39;100672.47;;;18.50;62.46
26657;BME280;14279;50.010;8.260;2023-05-23T11:35:06;100678.34;;;18.42;62.23
26657;BME280;14279;50.010;8.260;2023-05-23T11:37:33;100675.50;;;19.04;60.80
26657;BME280;14279;50.010;8.260;2023-05-23T11:39:58;100693.56;;;18.86;61.01
26657;BME280;14279;50.010;8.260;2023-05-23T11:42:24;100675.91;;;19.22;60.17
26657;BME280;14279;50.010;8.260;2023-05-23T11:44:50;100690.38;;;19.16;59.71
26657;BME280;14279;50.010;8.260;2023-05-23T11:47:16;100684.16;;;19.06;60.64
26657;BME280;14279;50.010;8.260;2023-05-23T11:49:46;100697.13;;;19.09;60.22
26657;BME280;14279;50.010;8.260;2023-05-23T11:52:12;100681.22;;;18.86;61.16
26657;BME280;14279;50.010;8.260;2023-05-23T11:54:40;100710.13;;;18.52;61.79
26657;BME280;14279;50.010;8.260;2023-05-23T11:57:06;100689.19;;;17.89;64.98
26657;BME280;14279;50.010;8.260;2023-05-23T11:59:32;100702.47;;;18.25;64.12
26657;BME280;14279;50.010;8.260;2023-05-23T12:01:58;100706.00;;;18.37;63.16
26657;BME280;14279;50.010;8.260;2023-05-23T12:04:24;100700.84;;;18.11;63.72
26657;BME280;14279;50.010;8.260;2023-05-23T12:06:50;100698.03;;;17.88;64.13
26657;BME280;14279;50.010;8.260;2023-05-23T12:09:16;100706.88;;;17.87;64.46
26657;BME280;14279;50.010;8.260;2023-05-23T12:11:42;100704.53;;;18.32;62.97
26657;BME280;14279;50.010;8.260;2023-05-23T12:14:08;100692.19;;;18.33;62.76
26657;BME280;14279;50.010;8.260;2023-05-23T12:16:34;100701.31;;;18.40;62.58
26657;BME280;14279;50.010;8.260;2023-05-23T12:19:01;100693.09;;;18.21;63.04
26657;BME280;14279;50.010;8.260;2023-05-23T12:21:40;100690.81;;;18.16;63.13
26657;BME280;14279;50.010;8.260;2023-05-23T12:24:14;100688.13;;;18.65;61.34
26657;BME280;14279;50.010;8.260;2023-05-23T12:26:56;100698.59;;;18.17;61.27
26657;BME280;14279;50.010;8.260;2023-05-23T12:29:28;100694.84;;;18.09;61.46
26657;BME280;14279;50.010;8.260;2023-05-23T12:31:53;100684.06;;;18.36;61.00
26657;BME280;14279;50.010;8.260;2023-05-23T12:34:19;100684.28;;;18.69;59.43
26657;BME280;14279;50.010;8.260;2023-05-23T12:36:45;100696.72;;;18.55;60.04
26657;BME280;14279;50.010;8.260;2023-05-23T12:39:29;100689.81;;;18.77;59.15
26657;BME280;14279;50.010;8.260;2023-05-23T12:42:06;100687.88;;;18.68;59.45
26657;BME280;14279;50.010;8.260;2023-05-23T12:44:32;100702.63;;;19.06;57.78
26657;BME280;14279;50.010;8.260;2023-05-23T12:46:58;100691.09;;;19.18;56.84
26657;BME280;14279;50.010;8.260;2023-05-23T12:49:23;100689.63;;;18.56;57.44
26657;BME280;14279;50.010;8.260;2023-05-23T12:51:48;100694.03;;;18.91;57.53
26657;BME280;14279;50.010;8.260;2023-05-23T12:54:13;100695.31;;;19.44;56.50
26657;BME280;14279;50.010;8.260;2023-05-23T12:56:39;100688.13;;;19.46;56.77